createdAt,value
2017-07-19T00:00:15.981Z,20.00
2017-07-19T00:01:16.730Z,19.96
2017-07-19T00:02:17.449Z,19.99
2017-07-19T00:03:18.194Z,19.92
2017-07-19T00:04:18.919Z,19.88
2017-07-19T00:05:19.646Z,19.92
2017-07-19T00:06:20.373Z,19.88
2017-07-19T00:07:21.120Z,19.91
2017-07-19T00:08:21.842Z,19.88
2017-07-19T00:09:22.566Z,19.85
2017-07-19T00:10:23.291Z,19.91
2017-07-19T00:11:24.011Z,19.89
2017-07-19T00:13:26.473Z,19.89
2017-07-19T00:14:27.196Z,19.89
2017-07-19T00:15:27.919Z,19.79
2017-07-19T00:16:28.670Z,19.92
2017-07-19T00:17:29.393Z,19.86
2017-07-19T00:18:30.116Z,19.88
2017-07-19T00:19:30.842Z,19.77
2017-07-19T00:20:31.588Z,19.77
2017-07-19T00:21:32.310Z,19.76
2017-07-19T00:22:33.032Z,19.74
2017-07-19T00:23:33.758Z,19.81
2017-07-19T00:24:34.481Z,19.71
2017-07-19T00:25:35.232Z,19.76
2017-07-19T00:26:35.955Z,19.77
2017-07-19T00:27:36.676Z,19.77
2017-07-19T00:28:37.398Z,19.71
2017-07-19T00:29:38.150Z,19.76
2017-07-19T00:30:38.876Z,19.73
2017-07-19T00:31:39.601Z,19.67
2017-07-19T00:32:40.317Z,19.67
2017-07-19T00:33:41.048Z,19.59
2017-07-19T00:34:41.767Z,19.66
2017-07-19T00:35:42.491Z,19.58
2017-07-19T00:36:43.238Z,19.64
2017-07-19T00:37:43.962Z,19.70
2017-07-19T00:38:44.713Z,19.63
2017-07-19T00:39:45.433Z,19.58
2017-07-19T00:40:46.160Z,19.62
2017-07-19T00:41:46.884Z,19.62
2017-07-19T00:42:47.607Z,19.58
2017-07-19T00:43:48.331Z,19.58
2017-07-19T00:44:49.049Z,19.56
2017-07-19T00:45:49.795Z,19.66
2017-07-19T00:46:50.542Z,19.63
2017-07-19T00:47:51.269Z,19.62
2017-07-19T00:48:52.013Z,19.56
2017-07-19T00:49:52.758Z,19.56
2017-07-19T00:50:53.482Z,19.58
2017-07-19T00:51:54.204Z,19.51
2017-07-19T00:52:54.929Z,19.58
2017-07-19T00:53:55.654Z,19.56
2017-07-19T00:54:56.402Z,19.51
2017-07-19T00:55:57.121Z,19.52
2017-07-19T00:56:57.870Z,19.47
2017-07-19T00:57:58.595Z,19.56
2017-07-19T00:58:59.315Z,19.51
2017-07-19T01:00:00.040Z,19.44
2017-07-19T01:01:00.765Z,19.49
2017-07-19T01:02:01.489Z,19.52
2017-07-19T01:03:02.211Z,19.45
2017-07-19T01:04:02.941Z,19.45
2017-07-19T01:05:03.681Z,19.39
2017-07-19T01:06:04.402Z,19.40
2017-07-19T01:07:05.148Z,19.41
2017-07-19T01:08:05.872Z,19.39
2017-07-19T01:09:06.617Z,19.39
2017-07-19T01:10:07.341Z,19.39
2017-07-19T01:11:08.061Z,19.40
2017-07-19T01:12:08.787Z,19.39
2017-07-19T01:13:09.529Z,19.37
2017-07-19T01:14:10.279Z,19.33
2017-07-19T01:15:11.000Z,19.40
2017-07-19T01:16:11.721Z,19.40
2017-07-19T01:17:12.446Z,19.37
2017-07-19T01:18:13.193Z,19.34
2017-07-19T01:19:13.935Z,19.31
2017-07-19T01:20:14.658Z,19.31
2017-07-19T01:21:15.378Z,19.29
2017-07-19T01:22:16.127Z,19.27
2017-07-19T01:23:16.875Z,19.29
2017-07-19T01:24:17.602Z,19.26
2017-07-19T01:25:18.322Z,19.26
2017-07-19T01:26:19.043Z,19.26
2017-07-19T01:27:19.767Z,19.29
2017-07-19T01:28:20.491Z,19.29
2017-07-19T01:29:21.210Z,19.22
2017-07-19T01:30:21.937Z,19.22
2017-07-19T01:31:22.658Z,19.24
2017-07-19T01:32:23.381Z,19.21
2017-07-19T01:33:24.103Z,19.22
2017-07-19T01:34:24.848Z,19.26
2017-07-19T01:35:25.571Z,19.27
2017-07-19T01:36:26.294Z,19.21
2017-07-19T01:37:27.035Z,19.21
2017-07-19T01:38:27.764Z,19.24
2017-07-19T01:39:28.504Z,19.19
2017-07-19T01:40:29.251Z,19.19
2017-07-19T01:41:29.974Z,19.29
2017-07-19T01:42:30.690Z,19.26
2017-07-19T01:43:31.414Z,19.22
2017-07-19T01:44:32.135Z,19.18
2017-07-19T01:45:32.856Z,19.24
2017-07-19T01:46:33.578Z,19.24
2017-07-19T01:47:34.302Z,19.19
2017-07-19T01:48:35.024Z,19.22
2017-07-19T01:49:35.744Z,19.27
2017-07-19T01:50:36.470Z,19.14
2017-07-19T01:51:37.194Z,19.18
2017-07-19T01:52:37.915Z,19.15
2017-07-19T01:53:38.639Z,19.22
2017-07-19T01:54:39.358Z,19.14
2017-07-19T01:55:40.082Z,19.15
2017-07-19T01:56:40.837Z,19.14
2017-07-19T01:57:41.547Z,19.15
2017-07-19T01:58:42.268Z,19.11
2017-07-19T01:59:42.991Z,19.12
2017-07-19T02:00:43.732Z,19.15
2017-07-19T02:01:44.475Z,19.14
2017-07-19T02:02:45.200Z,19.12
2017-07-19T02:03:45.925Z,19.15
2017-07-19T02:04:46.667Z,19.11
2017-07-19T02:05:47.387Z,19.14
2017-07-19T02:06:48.113Z,19.12
2017-07-19T02:07:48.835Z,19.16
2017-07-19T02:08:49.579Z,19.14
2017-07-19T02:09:50.300Z,19.12
2017-07-19T02:10:51.020Z,19.08
2017-07-19T02:11:51.743Z,19.18
2017-07-19T02:12:52.466Z,19.18
2017-07-19T02:13:53.186Z,19.12
2017-07-19T02:14:53.906Z,19.09
2017-07-19T02:15:54.651Z,19.14
2017-07-19T02:16:55.372Z,19.14
2017-07-19T02:17:56.119Z,19.11
2017-07-19T02:18:56.837Z,19.12
2017-07-19T02:19:57.581Z,19.14
2017-07-19T02:20:58.305Z,19.12
2017-07-19T02:21:59.053Z,19.11
2017-07-19T02:22:59.776Z,19.09
2017-07-19T02:24:00.496Z,19.08
2017-07-19T02:25:01.220Z,19.08
2017-07-19T02:26:01.944Z,19.08
2017-07-19T02:27:02.663Z,19.18
2017-07-19T02:28:03.388Z,19.09
2017-07-19T02:29:04.106Z,19.08
2017-07-19T02:30:04.834Z,19.09
2017-07-19T02:31:05.577Z,19.09
2017-07-19T02:32:06.303Z,19.04
2017-07-19T02:33:07.047Z,19.04
2017-07-19T02:34:07.791Z,19.08
2017-07-19T02:35:08.511Z,19.00
2017-07-19T02:36:09.231Z,19.02
2017-07-19T02:37:09.973Z,19.07
2017-07-19T02:38:10.702Z,19.07
2017-07-19T02:39:11.420Z,19.04
2017-07-19T02:40:12.145Z,18.98
2017-07-19T02:41:12.863Z,18.99
2017-07-19T02:42:13.605Z,18.99
2017-07-19T02:43:14.326Z,18.96
2017-07-19T02:44:15.052Z,18.95
2017-07-19T02:45:15.773Z,18.96
2017-07-19T02:46:16.493Z,19.00
2017-07-19T02:47:17.215Z,18.98
2017-07-19T02:48:17.936Z,18.95
2017-07-19T02:49:18.659Z,19.04
2017-07-19T02:50:19.384Z,19.00
2017-07-19T02:51:20.129Z,18.98
2017-07-19T02:52:20.852Z,18.96
2017-07-19T02:53:21.572Z,18.98
2017-07-19T02:54:22.295Z,18.96
2017-07-19T02:55:23.034Z,18.90
2017-07-19T02:56:23.743Z,18.98
2017-07-19T02:57:24.462Z,18.92
2017-07-19T02:58:25.205Z,18.88
2017-07-19T02:59:25.929Z,18.89
2017-07-19T03:00:26.650Z,18.92
2017-07-19T03:01:27.374Z,18.90
2017-07-19T03:02:28.113Z,18.95
2017-07-19T03:03:28.838Z,18.90
2017-07-19T03:04:29.563Z,18.93
2017-07-19T03:05:30.308Z,18.90
2017-07-19T03:06:31.030Z,18.89
2017-07-19T03:07:31.752Z,18.92
2017-07-19T03:08:32.473Z,18.92
2017-07-19T03:09:33.218Z,18.92
2017-07-19T03:10:33.941Z,18.86
2017-07-19T03:11:34.664Z,18.90
2017-07-19T03:12:35.393Z,18.89
2017-07-19T03:13:36.122Z,18.88
2017-07-19T03:14:36.845Z,18.89
2017-07-19T03:15:37.566Z,18.88
2017-07-19T03:16:38.310Z,18.81
2017-07-19T03:17:39.038Z,18.73
2017-07-19T03:18:39.761Z,18.80
2017-07-19T03:19:40.486Z,18.84
2017-07-19T03:20:41.211Z,18.80
2017-07-19T03:21:41.935Z,18.80
2017-07-19T03:22:42.659Z,18.86
2017-07-19T03:23:43.383Z,18.78
2017-07-19T03:24:44.127Z,18.86
2017-07-19T03:25:44.879Z,18.83
2017-07-19T03:26:45.597Z,18.75
2017-07-19T03:27:46.342Z,18.83
2017-07-19T03:28:47.066Z,18.80
2017-07-19T03:29:47.791Z,18.88
2017-07-19T03:30:48.535Z,18.80
2017-07-19T03:31:49.255Z,18.77
2017-07-19T03:32:49.984Z,18.86
2017-07-19T03:33:50.706Z,18.75
2017-07-19T03:34:51.432Z,18.75
2017-07-19T03:35:52.157Z,18.80
2017-07-19T03:36:52.903Z,18.78
2017-07-19T03:37:53.629Z,18.81
2017-07-19T03:38:54.354Z,18.81
2017-07-19T03:39:55.081Z,18.78
2017-07-19T03:40:55.807Z,18.80
2017-07-19T03:41:56.530Z,18.75
2017-07-19T03:42:57.258Z,18.78
2017-07-19T03:43:57.986Z,18.80
2017-07-19T03:44:58.734Z,18.75
2017-07-19T03:45:59.464Z,18.86
2017-07-19T03:47:00.188Z,18.83
2017-07-19T03:48:00.918Z,18.83
2017-07-19T03:49:01.644Z,18.86
2017-07-19T03:50:02.370Z,18.80
2017-07-19T03:51:03.121Z,18.86
2017-07-19T03:52:03.844Z,18.95
2017-07-19T03:53:04.573Z,18.86
2017-07-19T03:54:05.298Z,18.93
2017-07-19T03:55:06.024Z,18.89
2017-07-19T03:56:06.753Z,18.90
2017-07-19T03:57:07.475Z,18.95
2017-07-19T03:58:08.226Z,18.96
2017-07-19T03:59:08.950Z,18.95
2017-07-19T04:00:09.675Z,18.98
2017-07-19T04:01:10.401Z,18.98
2017-07-19T04:02:11.126Z,19.07
2017-07-19T04:03:11.856Z,19.04
2017-07-19T04:04:12.591Z,19.08
2017-07-19T04:05:13.309Z,18.99
2017-07-19T04:06:14.057Z,19.00
2017-07-19T04:07:14.784Z,19.09
2017-07-19T04:08:15.513Z,19.07
2017-07-19T04:09:16.260Z,19.08
2017-07-19T04:10:17.010Z,19.09
2017-07-19T04:11:17.746Z,19.19
2017-07-19T04:12:18.485Z,19.11
2017-07-19T04:13:19.210Z,19.14
2017-07-19T04:14:19.939Z,19.15
2017-07-19T04:15:20.691Z,19.15
2017-07-19T04:16:21.415Z,19.12
2017-07-19T04:17:22.145Z,19.18
2017-07-19T04:18:22.871Z,19.18
2017-07-19T04:19:23.604Z,19.22
2017-07-19T04:20:24.323Z,19.16
2017-07-19T04:21:25.052Z,19.18
2017-07-19T04:22:25.783Z,19.24
2017-07-19T04:23:26.508Z,19.18
2017-07-19T04:24:27.236Z,19.27
2017-07-19T04:25:27.965Z,19.27
2017-07-19T04:26:28.691Z,19.21
2017-07-19T04:27:29.421Z,19.24
2017-07-19T04:28:30.147Z,19.29
2017-07-19T04:29:30.877Z,19.24
2017-07-19T04:30:31.621Z,19.29
2017-07-19T04:31:32.331Z,19.22
2017-07-19T04:32:33.078Z,19.24
2017-07-19T04:33:33.806Z,19.34
2017-07-19T04:34:34.535Z,19.31
2017-07-19T04:35:35.261Z,19.31
2017-07-19T04:36:35.993Z,19.36
2017-07-19T04:37:36.736Z,19.39
2017-07-19T04:38:37.468Z,19.36
2017-07-19T04:39:38.220Z,19.45
2017-07-19T04:40:38.945Z,19.39
2017-07-19T04:41:39.677Z,19.45
2017-07-19T04:42:40.402Z,19.49
2017-07-19T04:43:41.138Z,19.36
2017-07-19T04:44:41.858Z,19.39
2017-07-19T04:45:42.590Z,19.45
2017-07-19T04:46:43.316Z,19.54
2017-07-19T04:47:44.045Z,19.48
2017-07-19T04:48:44.773Z,19.49
2017-07-19T04:49:45.497Z,19.51
2017-07-19T04:50:46.222Z,19.62
2017-07-19T04:51:46.952Z,19.52
2017-07-19T04:52:47.682Z,19.56
2017-07-19T04:53:48.412Z,19.63
2017-07-19T04:54:49.137Z,19.73
2017-07-19T04:55:49.866Z,19.70
2017-07-19T04:56:50.592Z,19.66
2017-07-19T04:57:51.341Z,19.66
2017-07-19T04:58:52.072Z,19.74
2017-07-19T04:59:52.798Z,19.74
2017-07-19T05:00:53.529Z,19.76
2017-07-19T05:01:54.253Z,19.84
2017-07-19T05:02:54.983Z,19.73
2017-07-19T05:03:55.715Z,19.89
2017-07-19T05:04:56.445Z,19.88
2017-07-19T05:05:57.172Z,19.91
2017-07-19T05:06:57.906Z,19.92
2017-07-19T05:07:58.637Z,19.89
2017-07-19T05:08:59.388Z,19.95
2017-07-19T05:10:00.121Z,19.99
2017-07-19T05:11:00.851Z,20.11
2017-07-19T05:12:01.586Z,20.13
2017-07-19T05:13:02.310Z,20.19
2017-07-19T05:14:03.041Z,20.18
2017-07-19T05:15:03.764Z,20.21
2017-07-19T05:16:04.496Z,20.32
2017-07-19T05:17:05.227Z,20.21
2017-07-19T05:18:05.953Z,20.31
2017-07-19T05:19:06.704Z,20.25
2017-07-19T05:20:07.455Z,20.34
2017-07-19T05:21:08.185Z,20.36
2017-07-19T05:22:08.914Z,20.39
2017-07-19T05:23:09.667Z,20.39
2017-07-19T05:24:10.398Z,20.40
2017-07-19T05:25:11.123Z,20.41
2017-07-19T05:26:11.855Z,20.36
2017-07-19T05:27:12.582Z,20.47
2017-07-19T05:28:13.313Z,20.59
2017-07-19T05:29:14.043Z,20.52
2017-07-19T05:30:14.771Z,20.59
2017-07-19T05:31:15.506Z,20.60
2017-07-19T05:32:16.254Z,20.60
2017-07-19T05:33:16.980Z,20.67
2017-07-19T05:34:17.712Z,20.70
2017-07-19T05:35:18.468Z,20.66
2017-07-19T05:36:19.176Z,20.72
2017-07-19T05:37:19.925Z,20.82
2017-07-19T05:38:20.659Z,20.80
2017-07-19T05:39:21.386Z,20.81
2017-07-19T05:40:22.118Z,20.93
2017-07-19T05:41:22.846Z,20.97
2017-07-19T05:42:23.577Z,21.07
2017-07-19T05:43:24.329Z,21.06
2017-07-19T05:44:25.057Z,20.93
2017-07-19T05:45:25.787Z,20.90
2017-07-19T05:46:26.519Z,21.03
2017-07-19T05:47:27.248Z,21.09
2017-07-19T05:48:28.000Z,21.07
2017-07-19T05:49:28.734Z,21.14
2017-07-19T05:50:29.462Z,21.20
2017-07-19T05:51:30.192Z,21.30
2017-07-19T05:52:30.925Z,21.36
2017-07-19T05:53:31.676Z,21.32
2017-07-19T05:54:32.403Z,21.35
2017-07-19T05:55:33.138Z,21.32
2017-07-19T05:56:33.865Z,21.27
2017-07-19T05:57:34.595Z,21.37
2017-07-19T05:58:35.324Z,21.33
2017-07-19T05:59:36.058Z,21.29
2017-07-19T06:00:36.807Z,21.35
2017-07-19T06:01:37.535Z,21.43
2017-07-19T06:02:38.271Z,21.50
2017-07-19T06:03:38.997Z,21.42
2017-07-19T06:04:39.748Z,21.50
2017-07-19T06:05:40.476Z,21.60
2017-07-19T06:06:41.204Z,21.60
2017-07-19T06:07:41.957Z,21.66
2017-07-19T06:08:42.686Z,21.75
2017-07-19T06:09:43.425Z,21.66
2017-07-19T06:10:44.142Z,21.60
2017-07-19T06:11:44.892Z,21.70
2017-07-19T06:12:45.624Z,21.70
2017-07-19T06:13:46.376Z,21.77
2017-07-19T06:14:47.103Z,21.85
2017-07-19T06:15:47.870Z,21.93
2017-07-19T06:16:48.626Z,21.98
2017-07-19T06:17:49.351Z,22.04
2017-07-19T06:18:50.085Z,22.11
2017-07-19T06:19:50.841Z,22.13
2017-07-19T06:20:51.569Z,22.14
2017-07-19T06:21:52.297Z,22.08
2017-07-19T06:22:53.051Z,22.11
2017-07-19T06:23:53.798Z,22.18
2017-07-19T06:24:54.528Z,22.15
2017-07-19T06:25:55.259Z,22.18
2017-07-19T06:26:55.986Z,22.18
2017-07-19T06:27:56.718Z,22.26
2017-07-19T06:28:57.468Z,22.39
2017-07-19T06:29:58.202Z,22.38
2017-07-19T06:30:58.935Z,22.59
2017-07-19T06:31:59.662Z,22.62
2017-07-19T06:33:00.392Z,22.54
2017-07-19T06:34:01.124Z,22.62
2017-07-19T06:35:01.852Z,22.65
2017-07-19T06:36:02.604Z,22.70
2017-07-19T06:37:03.359Z,22.83
2017-07-19T06:38:04.093Z,22.83
2017-07-19T06:39:04.824Z,22.73
2017-07-19T06:40:05.553Z,22.68
2017-07-19T06:41:06.288Z,22.59
2017-07-19T06:42:07.020Z,22.68
2017-07-19T06:43:07.752Z,22.65
2017-07-19T06:44:08.479Z,22.76
2017-07-19T06:45:09.214Z,22.90
2017-07-19T06:46:09.945Z,23.05
2017-07-19T06:47:10.680Z,23.08
2017-07-19T06:48:11.413Z,23.06
2017-07-19T06:49:12.144Z,23.09
2017-07-19T06:50:12.898Z,23.23
2017-07-19T06:51:13.634Z,23.23
2017-07-19T06:52:14.364Z,23.39
2017-07-19T06:53:15.095Z,23.47
2017-07-19T06:54:15.829Z,23.43
2017-07-19T06:55:16.560Z,23.54
2017-07-19T06:56:17.289Z,23.47
2017-07-19T06:57:18.020Z,23.47
2017-07-19T06:58:18.786Z,23.41
2017-07-19T06:59:19.512Z,23.37
2017-07-19T07:00:20.241Z,23.48
2017-07-19T07:01:20.971Z,23.40
2017-07-19T07:02:21.708Z,23.48
2017-07-19T07:03:22.439Z,23.54
2017-07-19T07:04:23.170Z,23.65
2017-07-19T07:05:23.900Z,23.55
2017-07-19T07:06:24.635Z,23.73
2017-07-19T07:07:25.402Z,23.61
2017-07-19T07:08:26.137Z,23.77
2017-07-19T07:09:26.876Z,23.78
2017-07-19T07:10:27.668Z,23.83
2017-07-19T07:11:28.403Z,23.83
2017-07-19T07:12:29.159Z,23.86
2017-07-19T07:13:29.913Z,23.77
2017-07-19T07:14:30.647Z,23.81
2017-07-19T07:15:31.409Z,23.99
2017-07-19T07:16:32.161Z,23.81
2017-07-19T07:17:32.898Z,23.95
2017-07-19T07:18:33.627Z,23.96
2017-07-19T07:19:34.364Z,24.03
2017-07-19T07:20:35.096Z,24.01
2017-07-19T07:21:35.831Z,24.16
2017-07-19T07:22:36.562Z,24.20
2017-07-19T07:23:37.299Z,24.11
2017-07-19T07:24:38.051Z,24.28
2017-07-19T07:25:38.786Z,24.28
2017-07-19T07:26:39.519Z,24.21
2017-07-19T07:27:40.259Z,24.20
2017-07-19T07:28:41.017Z,24.38
2017-07-19T07:29:41.749Z,24.47
2017-07-19T07:30:42.483Z,24.58
2017-07-19T07:31:43.221Z,24.61
2017-07-19T07:32:43.955Z,24.76
2017-07-19T07:33:44.693Z,24.76
2017-07-19T07:34:45.455Z,24.77
2017-07-19T07:35:46.185Z,24.88
2017-07-19T07:36:46.922Z,24.98
2017-07-19T07:37:47.660Z,25.03
2017-07-19T07:38:48.400Z,25.10
2017-07-19T07:39:49.139Z,25.11
2017-07-19T07:40:49.883Z,25.25
2017-07-19T07:41:50.612Z,25.36
2017-07-19T07:42:51.376Z,25.41
2017-07-19T07:43:52.109Z,25.38
2017-07-19T07:44:52.840Z,25.51
2017-07-19T07:45:53.577Z,25.55
2017-07-19T07:46:54.337Z,25.60
2017-07-19T07:47:55.089Z,25.68
2017-07-19T07:48:55.826Z,25.83
2017-07-19T07:49:56.586Z,25.80
2017-07-19T07:50:57.326Z,25.75
2017-07-19T07:51:58.062Z,25.75
2017-07-19T07:53:00.014Z,25.88
2017-07-19T07:54:00.753Z,25.96
2017-07-19T07:55:01.493Z,25.96
2017-07-19T07:56:02.227Z,26.02
2017-07-19T07:57:02.965Z,26.00
2017-07-19T07:58:03.705Z,26.06
2017-07-19T07:59:04.441Z,26.00
2017-07-19T08:00:05.182Z,26.19
2017-07-19T08:01:05.918Z,26.18
2017-07-19T08:02:06.657Z,26.26
2017-07-19T08:03:07.419Z,26.41
2017-07-19T08:04:08.161Z,26.38
2017-07-19T08:05:08.902Z,26.29
2017-07-19T08:06:09.647Z,26.44
2017-07-19T08:07:10.396Z,26.48
2017-07-19T08:08:11.134Z,26.70
2017-07-19T08:09:11.874Z,26.85
2017-07-19T08:10:12.606Z,26.81
2017-07-19T08:11:13.367Z,26.56
2017-07-19T08:12:14.120Z,26.40
2017-07-19T08:13:14.860Z,26.47
2017-07-19T08:14:15.593Z,26.16
2017-07-19T08:15:16.327Z,26.15
2017-07-19T08:16:17.062Z,26.18
2017-07-19T08:17:17.820Z,26.28
2017-07-19T08:18:18.558Z,26.31
2017-07-19T08:19:19.298Z,26.29
2017-07-19T08:20:20.024Z,26.45
2017-07-19T08:21:20.757Z,26.58
2017-07-19T08:22:21.492Z,26.65
2017-07-19T08:23:22.227Z,26.74
2017-07-19T08:24:22.961Z,26.45
2017-07-19T08:25:23.719Z,26.56
2017-07-19T08:26:24.456Z,26.56
2017-07-19T08:27:25.188Z,26.63
2017-07-19T08:28:25.921Z,26.75
2017-07-19T08:29:26.656Z,26.74
2017-07-19T08:30:27.410Z,26.81
2017-07-19T08:31:28.147Z,26.74
2017-07-19T08:32:28.881Z,26.63
2017-07-19T08:33:29.620Z,26.59
2017-07-19T08:34:30.348Z,26.48
2017-07-19T08:35:31.087Z,26.59
2017-07-19T08:36:31.821Z,26.66
2017-07-19T08:37:32.558Z,26.68
2017-07-19T08:38:33.291Z,26.88
2017-07-19T08:39:34.046Z,26.85
2017-07-19T08:40:34.785Z,27.05
2017-07-19T08:41:35.522Z,27.03
2017-07-19T08:42:36.257Z,27.07
2017-07-19T08:43:36.992Z,26.88
2017-07-19T08:44:37.727Z,26.99
2017-07-19T08:45:38.459Z,27.02
2017-07-19T08:46:39.194Z,26.95
2017-07-19T08:47:39.933Z,26.84
2017-07-19T08:48:40.687Z,26.97
2017-07-19T08:49:41.422Z,27.14
2017-07-19T08:50:42.156Z,27.14
2017-07-19T08:51:42.894Z,27.07
2017-07-19T08:52:43.626Z,27.10
2017-07-19T08:53:44.365Z,27.18
2017-07-19T08:54:45.101Z,27.35
2017-07-19T08:55:45.840Z,27.39
2017-07-19T08:56:46.574Z,27.36
2017-07-19T08:57:47.311Z,27.51
2017-07-19T08:58:48.049Z,27.17
2017-07-19T08:59:48.788Z,27.39
2017-07-19T09:00:49.526Z,27.29
2017-07-19T09:01:50.267Z,27.15
2017-07-19T09:02:51.002Z,27.17
2017-07-19T09:03:51.760Z,27.47
2017-07-19T09:04:52.496Z,27.63
2017-07-19T09:05:53.261Z,27.68
2017-07-19T09:06:53.998Z,27.75
2017-07-19T09:07:54.740Z,27.92
2017-07-19T09:08:55.482Z,27.92
2017-07-19T09:09:56.225Z,28.11
2017-07-19T09:10:56.990Z,28.05
2017-07-19T09:11:57.751Z,28.08
2017-07-19T09:12:58.490Z,28.08
2017-07-19T09:13:59.231Z,28.10
2017-07-19T09:14:59.972Z,28.17
2017-07-19T09:16:00.710Z,28.04
2017-07-19T09:17:01.455Z,27.89
2017-07-19T09:18:02.202Z,28.14
2017-07-19T09:19:02.946Z,28.00
2017-07-19T09:20:03.674Z,28.08
2017-07-19T09:21:04.413Z,28.19
2017-07-19T09:22:05.151Z,28.11
2017-07-19T09:23:05.894Z,28.10
2017-07-19T09:24:06.631Z,28.07
2017-07-19T09:25:07.377Z,28.07
2017-07-19T09:26:08.112Z,27.92
2017-07-19T09:27:08.856Z,28.00
2017-07-19T09:28:09.594Z,28.23
2017-07-19T09:29:10.332Z,28.42
2017-07-19T09:30:11.097Z,28.56
2017-07-19T09:31:11.836Z,28.29
2017-07-19T09:32:12.574Z,28.25
2017-07-19T09:33:13.336Z,28.48
2017-07-19T09:34:14.076Z,28.62
2017-07-19T09:35:14.815Z,28.81
2017-07-19T09:36:15.558Z,28.94
2017-07-19T09:37:16.304Z,29.23
2017-07-19T09:38:17.050Z,29.49
2017-07-19T09:39:17.794Z,29.78
2017-07-19T09:40:18.540Z,29.76
2017-07-19T09:41:19.287Z,29.60
2017-07-19T09:42:20.058Z,29.59
2017-07-19T09:43:20.805Z,29.69
2017-07-19T09:44:21.557Z,29.81
2017-07-19T09:45:22.306Z,30.00
2017-07-19T09:46:23.072Z,30.25
2017-07-19T09:47:23.848Z,30.47
2017-07-19T09:48:24.595Z,30.63
2017-07-19T09:49:25.346Z,30.94
2017-07-19T09:50:26.099Z,30.72
2017-07-19T09:51:26.846Z,30.85
2017-07-19T09:52:27.593Z,30.85
2017-07-19T09:53:28.341Z,31.17
2017-07-19T09:54:29.094Z,31.14
2017-07-19T09:55:29.841Z,31.29
2017-07-19T09:56:30.593Z,31.42
2017-07-19T09:57:31.342Z,31.34
2017-07-19T09:58:32.095Z,31.31
2017-07-19T09:59:32.840Z,31.14
2017-07-19T10:00:33.615Z,31.10
2017-07-19T10:01:34.393Z,31.36
2017-07-19T10:02:35.143Z,31.52
2017-07-19T10:03:35.897Z,31.66
2017-07-19T10:04:36.646Z,31.55
2017-07-19T10:05:37.397Z,31.73
2017-07-19T10:06:38.147Z,31.93
2017-07-19T10:07:38.897Z,32.01
2017-07-19T10:08:39.644Z,32.26
2017-07-19T10:09:40.412Z,32.52
2017-07-19T10:10:41.164Z,32.58
2017-07-19T10:11:41.910Z,32.78
2017-07-19T10:12:42.661Z,33.07
2017-07-19T10:13:43.412Z,32.45
2017-07-19T10:14:44.155Z,32.52
2017-07-19T10:15:44.901Z,32.52
2017-07-19T10:16:45.644Z,32.73
2017-07-19T10:17:46.394Z,32.82
2017-07-19T10:18:47.137Z,32.90
2017-07-19T10:19:47.888Z,32.78
2017-07-19T10:20:48.661Z,32.75
2017-07-19T10:21:49.433Z,33.04
2017-07-19T10:22:50.178Z,33.22
2017-07-19T10:23:50.930Z,33.43
2017-07-19T10:24:51.682Z,33.23
2017-07-19T10:25:52.449Z,32.97
2017-07-19T10:26:53.197Z,33.27
2017-07-19T10:27:53.965Z,33.81
2017-07-19T10:28:54.718Z,34.03
2017-07-19T10:29:55.470Z,33.02
2017-07-19T10:30:56.211Z,33.19
2017-07-19T10:31:56.959Z,33.09
2017-07-19T10:32:57.701Z,33.09
2017-07-19T10:33:58.451Z,32.95
2017-07-19T10:34:59.196Z,32.93
2017-07-19T10:35:59.965Z,33.37
2017-07-19T10:37:00.707Z,33.65
2017-07-19T10:38:01.452Z,34.14
2017-07-19T10:39:02.200Z,33.90
2017-07-19T10:40:02.971Z,33.36
2017-07-19T10:41:03.714Z,33.52
2017-07-19T10:42:04.469Z,33.20
2017-07-19T10:43:05.209Z,33.27
2017-07-19T10:44:05.979Z,33.37
2017-07-19T10:45:06.726Z,33.42
2017-07-19T10:46:07.472Z,33.57
2017-07-19T10:47:08.221Z,33.84
2017-07-19T10:48:08.966Z,33.89
2017-07-19T10:49:09.720Z,33.99
2017-07-19T10:50:10.484Z,34.16
2017-07-19T10:51:11.228Z,34.38
2017-07-19T10:52:11.977Z,34.47
2017-07-19T10:53:12.723Z,34.35
2017-07-19T10:54:13.484Z,34.85
2017-07-19T10:55:14.217Z,34.93
2017-07-19T10:56:14.963Z,34.55
2017-07-19T10:57:15.711Z,34.48
2017-07-19T10:58:16.456Z,34.35
2017-07-19T10:59:17.203Z,34.32
2017-07-19T11:00:17.951Z,34.02
2017-07-19T11:01:18.700Z,34.51
2017-07-19T11:02:19.467Z,34.47
2017-07-19T11:03:20.212Z,34.67
2017-07-19T11:04:20.960Z,35.04
2017-07-19T11:05:21.706Z,35.42
2017-07-19T11:06:22.452Z,35.95
2017-07-19T11:07:23.200Z,36.20
2017-07-19T11:08:23.944Z,35.02
2017-07-19T11:09:24.692Z,34.45
2017-07-19T11:10:25.459Z,35.18
2017-07-19T11:11:26.205Z,35.19
2017-07-19T11:12:26.955Z,35.31
2017-07-19T11:13:27.695Z,35.41
2017-07-19T11:14:28.445Z,35.67
2017-07-19T11:15:29.201Z,35.29
2017-07-19T11:16:29.963Z,35.80
2017-07-19T11:17:30.734Z,35.92
2017-07-19T11:18:31.484Z,35.66
2017-07-19T11:19:32.254Z,35.36
2017-07-19T11:20:33.004Z,35.39
2017-07-19T11:21:33.776Z,35.18
2017-07-19T11:22:34.526Z,34.99
2017-07-19T11:23:35.276Z,35.12
2017-07-19T11:24:36.023Z,35.78
2017-07-19T11:25:36.769Z,36.02
2017-07-19T11:26:37.514Z,35.86
2017-07-19T11:27:38.270Z,36.02
2017-07-19T11:28:39.012Z,35.48
2017-07-19T11:29:39.813Z,35.56
2017-07-19T11:30:40.554Z,35.11
2017-07-19T11:31:41.324Z,35.27
2017-07-19T11:32:42.072Z,35.34
2017-07-19T11:33:42.823Z,35.31
2017-07-19T11:34:43.570Z,34.58
2017-07-19T11:35:44.337Z,34.20
2017-07-19T11:36:45.088Z,34.16
2017-07-19T11:37:45.828Z,34.74
2017-07-19T11:38:46.577Z,34.74
2017-07-19T11:39:47.373Z,34.96
2017-07-19T11:40:48.091Z,35.23
2017-07-19T11:41:48.842Z,35.44
2017-07-19T11:42:49.592Z,35.82
2017-07-19T11:43:50.336Z,35.82
2017-07-19T11:44:51.083Z,36.36
2017-07-19T11:45:51.834Z,36.59
2017-07-19T11:46:52.578Z,36.58
2017-07-19T11:47:53.349Z,36.04
2017-07-19T11:48:54.092Z,35.33
2017-07-19T11:49:54.839Z,35.10
2017-07-19T11:50:55.608Z,34.85
2017-07-19T11:51:56.352Z,35.07
2017-07-19T11:52:57.105Z,35.05
2017-07-19T11:53:57.868Z,34.88
2017-07-19T11:54:58.638Z,35.05
2017-07-19T11:55:59.380Z,35.17
2017-07-19T11:57:00.146Z,35.04
2017-07-19T11:58:00.891Z,35.19
2017-07-19T11:59:01.634Z,35.24
2017-07-19T12:00:02.377Z,35.22
2017-07-19T12:01:03.142Z,35.26
2017-07-19T12:02:03.884Z,35.00
2017-07-19T12:03:04.630Z,34.71
2017-07-19T12:04:05.377Z,34.66
2017-07-19T12:05:06.121Z,34.67
2017-07-19T12:06:06.865Z,34.99
2017-07-19T12:07:07.610Z,34.73
2017-07-19T12:08:08.351Z,35.02
2017-07-19T12:09:09.116Z,35.18
2017-07-19T12:10:09.863Z,34.75
2017-07-19T12:11:10.621Z,35.23
2017-07-19T12:12:11.368Z,35.70
2017-07-19T12:13:12.115Z,35.95
2017-07-19T12:14:12.858Z,36.05
2017-07-19T12:15:13.605Z,36.18
2017-07-19T12:16:14.369Z,36.51
2017-07-19T12:17:15.120Z,36.72
2017-07-19T12:18:15.879Z,36.88
2017-07-19T12:19:16.613Z,37.30
2017-07-19T12:20:17.361Z,37.40
2017-07-19T12:21:18.109Z,36.89
2017-07-19T12:22:18.851Z,36.39
2017-07-19T12:23:19.594Z,36.47
2017-07-19T12:24:20.344Z,37.02
2017-07-19T12:25:21.087Z,37.35
2017-07-19T12:26:21.838Z,37.40
2017-07-19T12:27:22.607Z,37.01
2017-07-19T12:28:23.371Z,37.45
2017-07-19T12:29:24.136Z,37.78
2017-07-19T12:30:24.879Z,37.94
2017-07-19T12:31:25.623Z,38.11
2017-07-19T12:32:26.367Z,37.58
2017-07-19T12:33:27.136Z,37.58
2017-07-19T12:34:27.901Z,37.94
2017-07-19T12:35:28.646Z,37.56
2017-07-19T12:36:29.389Z,37.44
2017-07-19T12:37:30.152Z,37.06
2017-07-19T12:38:30.899Z,37.39
2017-07-19T12:39:31.667Z,37.53
2017-07-19T12:40:32.412Z,37.82
2017-07-19T12:41:33.160Z,37.65
2017-07-19T12:42:33.923Z,37.36
2017-07-19T12:43:34.669Z,37.55
2017-07-19T12:44:35.417Z,37.33
2017-07-19T12:45:36.181Z,36.79
2017-07-19T12:46:36.928Z,36.70
2017-07-19T12:47:37.676Z,36.98
2017-07-19T12:48:38.416Z,36.80
2017-07-19T12:49:39.176Z,36.54
2017-07-19T12:50:39.908Z,36.43
2017-07-19T12:51:40.678Z,36.08
2017-07-19T12:52:41.424Z,35.90
2017-07-19T12:53:42.167Z,35.88
2017-07-19T12:54:42.913Z,35.92
2017-07-19T12:55:43.660Z,36.07
2017-07-19T12:56:44.406Z,36.14
2017-07-19T12:57:45.155Z,35.82
2017-07-19T12:58:45.902Z,35.80
2017-07-19T12:59:46.665Z,35.76
2017-07-19T13:00:47.414Z,35.89
2017-07-19T13:01:48.165Z,36.54
2017-07-19T13:02:48.899Z,36.95